^^
Saratoga-Weather Station Historical Data
Daily Summary for April 17, 2021 Units:  Metric    English   Both
Daily Weekly Monthly Yearly Custom
  High: Low: Average:
Temperature: 17.7 °C 15.3 °C 16.8 °C
Dew Point: 15 °C 13.7 °C 14.5 °C
Humidity: 91% 84% 86%
Wind Speed: 8km/h 0km/h 1.6km/h
Wind Gust: 9.7km/h - -
Wind- - SW
Pressure: 1022.7 hPa 1022.0 hPa -
Precipitation: 0.0 mm    
Historical Graphs
 
 
Tabular Data for April 17, 2021
Time Temperature Dew Point Pressure Wind Wind Speed Wind Gust Humidity Rainfall Rate (Hourly) solar
00:03 17.7 °C 15 °C 1022.4 hPa Calm   4.8 km/h 84% 0.0 mm 0 W/m2
00:08 17.6 °C 14.9 °C 1022.4 hPa NE 3.2 km/h 3.2 km/h 84% 0.0 mm 0 W/m2
00:13 17.6 °C 14.9 °C 1022.4 hPa Calm   4.8 km/h 84% 0.0 mm 0 W/m2
00:19 17.6 °C 14.9 °C 1022.7 hPa Calm   3.2 km/h 84% 0.0 mm 0 W/m2
00:24 17.6 °C 14.9 °C 1022.7 hPa NNW 4.7 km/h 6.4 km/h 84% 0.0 mm 0 W/m2
00:29 17.6 °C 14.9 °C 1022.7 hPa Calm   9.7 km/h 84% 0.0 mm 0 W/m2
00:34 17.6 °C 14.9 °C 1022.7 hPa NW 3.2 km/h 4.8 km/h 84% 0.0 mm 0 W/m2
00:39 17.5 °C 14.8 °C 1022.7 hPa Calm   9.7 km/h 84% 0.0 mm 0 W/m2
00:44 17.5 °C 14.8 °C 1022.7 hPa Calm   3.2 km/h 84% 0.0 mm 0 W/m2
00:49 17.5 °C 14.8 °C 1022.7 hPa Calm   6.4 km/h 84% 0.0 mm 0 W/m2
00:54 17.5 °C 14.8 °C 1022.7 hPa Calm   3.2 km/h 84% 0.0 mm 0 W/m2
00:59 17.4 °C 14.9 °C 1022.7 hPa WNW 3.2 km/h 9.7 km/h 85% 0.0 mm 0 W/m2
01:04 17.4 °C 14.9 °C 1022.7 hPa East 1.4 km/h 3.2 km/h 85% 0.0 mm 0 W/m2
01:09 17.4 °C 14.9 °C 1022.4 hPa NNW 1.4 km/h 8 km/h 85% 0.0 mm 0 W/m2
01:14 17.4 °C 14.9 °C 1022.4 hPa Calm   3.2 km/h 85% 0.0 mm 0 W/m2
01:19 17.4 °C 14.9 °C 1022.4 hPa NE 1.4 km/h 6.4 km/h 85% 0.0 mm 0 W/m2
01:24 17.4 °C 14.9 °C 1022.4 hPa WNW 6.4 km/h 8 km/h 85% 0.0 mm 0 W/m2
01:29 17.3 °C 14.8 °C 1022.4 hPa NNW 3.2 km/h 6.4 km/h 85% 0.0 mm 0 W/m2
01:34 17.3 °C 14.8 °C 1022.7 hPa NNW 8 km/h 8 km/h 85% 0.0 mm 0 W/m2
01:39 17.3 °C 14.8 °C 1022.4 hPa NNE 3.2 km/h 8 km/h 85% 0.0 mm 0 W/m2
01:44 17.3 °C 14.8 °C 1022.4 hPa North 1.4 km/h 6.4 km/h 85% 0.0 mm 0 W/m2
01:49 17.2 °C 14.7 °C 1022.4 hPa Calm   8 km/h 85% 0.0 mm 0 W/m2
01:54 17.2 °C 14.7 °C 1022.4 hPa ENE 1.4 km/h 3.2 km/h 85% 0.0 mm 0 W/m2
01:59 17.2 °C 14.7 °C 1022.4 hPa Calm   8 km/h 85% 0.0 mm 0 W/m2
02:04 17.2 °C 14.8 °C 1022.4 hPa Calm   6.4 km/h 86% 0.0 mm 0 W/m2
02:09 17.1 °C 14.7 °C 1022.4 hPa North 1.4 km/h 4.8 km/h 86% 0.0 mm 0 W/m2
02:14 17.1 °C 14.7 °C 1022.4 hPa ENE 1.4 km/h 4.8 km/h 86% 0.0 mm 0 W/m2
02:19 17.1 °C 14.7 °C 1022.4 hPa NNW 1.4 km/h 9.7 km/h 86% 0.0 mm 0 W/m2
02:24 17.1 °C 14.7 °C 1022.4 hPa NNW 4.7 km/h 8 km/h 86% 0.0 mm 0 W/m2
02:29 17.1 °C 14.7 °C 1022.4 hPa Calm   4.8 km/h 86% 0.0 mm 0 W/m2
02:34 17.1 °C 14.7 °C 1022.7 hPa Calm   3.2 km/h 86% 0.0 mm 0 W/m2
02:39 17 °C 14.6 °C 1022.7 hPa Calm   4.8 km/h 86% 0.0 mm 0 W/m2
02:44 17 °C 14.6 °C 1022.7 hPa Calm   3.2 km/h 86% 0.0 mm 0 W/m2
02:49 17 °C 14.6 °C 1022.4 hPa West 1.4 km/h 3.2 km/h 86% 0.0 mm 0 W/m2
02:54 16.9 °C 14.5 °C 1022.4 hPa SW 1.4 km/h 1.6 km/h 86% 0.0 mm 0 W/m2
02:59 16.9 °C 14.5 °C 1022.4 hPa West 3.2 km/h 8 km/h 86% 0.0 mm 0 W/m2
03:04 16.8 °C 14.4 °C 1022.4 hPa West 3.2 km/h 4.8 km/h 86% 0.0 mm 0 W/m2
03:09 16.8 °C 14.4 °C 1022.4 hPa West 1.4 km/h 8 km/h 86% 0.0 mm 0 W/m2
03:14 16.8 °C 14.6 °C 1022.4 hPa Calm   4.8 km/h 87% 0.0 mm 0 W/m2
03:19 16.7 °C 14.5 °C 1022.4 hPa West 3.2 km/h 6.4 km/h 87% 0.0 mm 0 W/m2
03:24 16.7 °C 14.5 °C 1022.4 hPa Calm   4.8 km/h 87% 0.0 mm 0 W/m2
03:29 16.6 °C 14.4 °C 1022.4 hPa Calm   1.6 km/h 87% 0.0 mm 0 W/m2
03:34 16.6 °C 14.4 °C 1022.4 hPa North 4.7 km/h 8 km/h 87% 0.0 mm 0 W/m2
03:39 16.5 °C 14.3 °C 1022.4 hPa WNW 6.4 km/h 8 km/h 87% 0.0 mm 0 W/m2
03:44 16.4 °C 14.2 °C 1022.4 hPa WNW 3.2 km/h 4.8 km/h 87% 0.0 mm 0 W/m2
03:49 16.4 °C 14.2 °C 1022.4 hPa NW 3.2 km/h 8 km/h 87% 0.0 mm 0 W/m2
03:54 16.4 °C 14.2 °C 1022.4 hPa NW 3.2 km/h 4.8 km/h 87% 0.0 mm 0 W/m2
03:59 16.3 °C 14.3 °C 1022.4 hPa Calm   6.4 km/h 88% 0.0 mm 0 W/m2
04:04 16.3 °C 14.1 °C 1022.4 hPa West 3.2 km/h 4.8 km/h 87% 0.0 mm 0 W/m2
04:09 16.2 °C 14.2 °C 1022.4 hPa WNW 3.2 km/h 9.7 km/h 88% 0.0 mm 0 W/m2
04:14 16.2 °C 14.2 °C 1022.4 hPa Calm   3.2 km/h 88% 0.0 mm 0 W/m2
04:19 16.1 °C 14.1 °C 1022.4 hPa Calm   4.8 km/h 88% 0.0 mm 0 W/m2
04:24 16 °C 14 °C 1022.4 hPa Calm   3.2 km/h 88% 0.0 mm 0 W/m2
04:29 15.9 °C 13.9 °C 1022.4 hPa Calm   4.8 km/h 88% 0.0 mm 0 W/m2
04:34 15.8 °C 14 °C 1022.0 hPa WNW 1.4 km/h 3.2 km/h 89% 0.0 mm 0 W/m2
04:39 15.7 °C 13.9 °C 1022.0 hPa Calm     89% 0.0 mm 0 W/m2
04:44 15.6 °C 13.8 °C 1022.0 hPa WNW 1.4 km/h 3.2 km/h 89% 0.0 mm 0 W/m2
04:49 15.5 °C 13.9 °C 1022.0 hPa Calm   1.6 km/h 90% 0.0 mm 0 W/m2
04:54 15.4 °C 13.8 °C 1022.4 hPa Calm   1.6 km/h 90% 0.0 mm 0 W/m2
04:59 15.3 °C 13.7 °C 1022.0 hPa West 1.4 km/h 1.6 km/h 90% 0.0 mm 0 W/m2
05:04 15.3 °C 13.8 °C 1022.0 hPa SW 1.4 km/h 3.2 km/h 91% 0.0 mm 0 W/m2
05:09 15.3 °C 13.8 °C 1022.0 hPa WNW 1.4 km/h 3.2 km/h 91% 0.0 mm 0 W/m2
Juneau County Weather
Compliments of Weather Underground - 2 mb